sensor_id;sensor_type;location;lat;lon;timestamp;pressure;altitude;pressure_sealevel;temperature;humidity
51123;BME280;37162;41.724;13.346;2023-07-30T00:01:07;96672.81;;;25.02;65.48
51123;BME280;37162;41.724;13.346;2023-07-30T00:03:32;96656.00;;;24.99;65.38
51123;BME280;37162;41.724;13.346;2023-07-30T00:05:57;96674.16;;;25.04;65.46
51123;BME280;37162;41.724;13.346;2023-07-30T00:08:23;96661.44;;;24.99;65.29
51123;BME280;37162;41.724;13.346;2023-07-30T00:10:49;96677.69;;;25.05;65.42
51123;BME280;37162;41.724;13.346;2023-07-30T00:13:14;96665.25;;;24.98;65.40
51123;BME280;37162;41.724;13.346;2023-07-30T00:15:40;96672.56;;;25.03;65.34
51123;BME280;37162;41.724;13.346;2023-07-30T00:18:05;96669.59;;;24.99;65.35
51123;BME280;37162;41.724;13.346;2023-07-30T00:20:31;96672.56;;;25.03;65.39
51123;BME280;37162;41.724;13.346;2023-07-30T00:22:56;96667.94;;;25.04;65.44
51123;BME280;37162;41.724;13.346;2023-07-30T00:25:22;96674.72;;;25.01;65.55
51123;BME280;37162;41.724;13.346;2023-07-30T00:27:47;96670.66;;;25.04;65.45
51123;BME280;37162;41.724;13.346;2023-07-30T00:30:13;96671.72;;;25.03;65.24
51123;BME280;37162;41.724;13.346;2023-07-30T00:32:38;96676.88;;;25.04;65.35
51123;BME280;37162;41.724;13.346;2023-07-30T00:35:09;96654.09;;;25.00;65.44
51123;BME280;37162;41.724;13.346;2023-07-30T00:37:35;96663.56;;;25.03;65.33
51123;BME280;37162;41.724;13.346;2023-07-30T00:40:01;96659.53;;;25.00;65.44
51123;BME280;37162;41.724;13.346;2023-07-30T00:42:27;96656.00;;;24.99;65.28
51123;BME280;37162;41.724;13.346;2023-07-30T00:44:52;96652.69;;;25.03;65.18
51123;BME280;37162;41.724;13.346;2023-07-30T00:47:18;96658.72;;;24.99;65.29
51123;BME280;37162;41.724;13.346;2023-07-30T00:49:43;96660.03;;;25.02;65.12
51123;BME280;37162;41.724;13.346;2023-07-30T00:52:09;96651.13;;;24.96;65.26
51123;BME280;37162;41.724;13.346;2023-07-30T00:54:35;96659.53;;;25.00;65.04
51123;BME280;37162;41.724;13.346;2023-07-30T00:57:00;96653.78;;;25.02;64.99
51123;BME280;37162;41.724;13.346;2023-07-30T00:59:26;96660.63;;;24.99;65.02
51123;BME280;37162;41.724;13.346;2023-07-30T01:01:52;96658.72;;;24.99;64.87
51123;BME280;37162;41.724;13.346;2023-07-30T01:04:18;96658.72;;;24.99;64.94
51123;BME280;37162;41.724;13.346;2023-07-30T01:06:44;96641.41;;;24.90;64.90
51123;BME280;37162;41.724;13.346;2023-07-30T01:09:10;96642.72;;;24.93;64.85
51123;BME280;37162;41.724;13.346;2023-07-30T01:11:37;96644.38;;;24.94;64.94
51123;BME280;37162;41.724;13.346;2023-07-30T01:14:05;96647.03;;;24.99;64.87
51123;BME280;37162;41.724;13.346;2023-07-30T01:16:30;96648.13;;;24.98;64.66
51123;BME280;37162;41.724;13.346;2023-07-30T01:18:56;96648.94;;;24.98;64.79
51123;BME280;37162;41.724;13.346;2023-07-30T01:21:24;96639.75;;;24.94;64.86
51123;BME280;37162;41.724;13.346;2023-07-30T01:23:49;96642.69;;;24.98;64.70
51123;BME280;37162;41.724;13.346;2023-07-30T01:26:22;96622.16;;;24.87;64.43
51123;BME280;37162;41.724;13.346;2023-07-30T01:28:51;96641.88;;;24.97;64.63
51123;BME280;37162;41.724;13.346;2023-07-30T01:31:20;96621.28;;;24.91;64.77
51123;BME280;37162;41.724;13.346;2023-07-30T01:33:52;96632.41;;;24.95;64.31
51123;BME280;37162;41.724;13.346;2023-07-30T01:36:19;96621.28;;;24.91;64.63
51123;BME280;37162;41.724;13.346;2023-07-30T01:38:47;96636.44;;;24.97;64.54
51123;BME280;37162;41.724;13.346;2023-07-30T01:41:13;96639.16;;;24.97;64.50
51123;BME280;37162;41.724;13.346;2023-07-30T01:43:38;96641.88;;;24.97;64.04
51123;BME280;37162;41.724;13.346;2023-07-30T01:46:04;96638.09;;;24.93;64.40
51123;BME280;37162;41.724;13.346;2023-07-30T01:48:29;96629.13;;;24.93;64.45
51123;BME280;37162;41.724;13.346;2023-07-30T01:50:55;96635.94;;;24.95;64.27
51123;BME280;37162;41.724;13.346;2023-07-30T01:53:20;96641.88;;;24.97;64.35
51123;BME280;37162;41.724;13.346;2023-07-30T01:55:45;96634.81;;;24.96;64.24
51123;BME280;37162;41.724;13.346;2023-07-30T01:58:14;96631.28;;;24.96;64.35
51123;BME280;37162;41.724;13.346;2023-07-30T02:00:40;96635.94;;;24.95;64.21
51123;BME280;37162;41.724;13.346;2023-07-30T02:03:06;96636.72;;;24.96;64.39
51123;BME280;37162;41.724;13.346;2023-07-30T02:05:32;96638.66;;;24.95;64.13
51123;BME280;37162;41.724;13.346;2023-07-30T02:07:58;96635.94;;;24.95;64.04
51123;BME280;37162;41.724;13.346;2023-07-30T02:10:26;96633.78;;;24.92;64.22
51123;BME280;37162;41.724;13.346;2023-07-30T02:12:52;96639.75;;;24.94;64.09
51123;BME280;37162;41.724;13.346;2023-07-30T02:15:17;96639.75;;;24.94;64.05
51123;BME280;37162;41.724;13.346;2023-07-30T02:17:43;96643.28;;;24.95;64.37
51123;BME280;37162;41.724;13.346;2023-07-30T02:20:09;96633.53;;;24.89;63.99
51123;BME280;37162;41.724;13.346;2023-07-30T02:22:34;96645.19;;;24.94;63.97
51123;BME280;37162;41.724;13.346;2023-07-30T02:25:00;96649.81;;;24.94;64.14
51123;BME280;37162;41.724;13.346;2023-07-30T02:27:25;96654.41;;;24.93;64.20
51123;BME280;37162;41.724;13.346;2023-07-30T02:29:51;96642.53;;;24.89;63.99
51123;BME280;37162;41.724;13.346;2023-07-30T02:32:16;96638.41;;;24.92;63.93
51123;BME280;37162;41.724;13.346;2023-07-30T02:34:41;96641.13;;;24.92;63.84
51123;BME280;37162;41.724;13.346;2023-07-30T02:37:07;96630.00;;;24.88;63.77
51123;BME280;37162;41.724;13.346;2023-07-30T02:39:32;96639.50;;;24.91;64.04
51123;BME280;37162;41.724;13.346;2023-07-30T02:41:58;96642.72;;;24.93;64.22
51123;BME280;37162;41.724;13.346;2023-07-30T02:44:23;96644.63;;;24.92;64.31
51123;BME280;37162;41.724;13.346;2023-07-30T02:46:49;96640.38;;;24.86;64.34
51123;BME280;37162;41.724;13.346;2023-07-30T02:49:14;96638.75;;;24.85;64.37
51123;BME280;37162;41.724;13.346;2023-07-30T02:51:40;96647.94;;;24.89;64.53
51123;BME280;37162;41.724;13.346;2023-07-30T02:54:06;96656.63;;;24.91;64.53
51123;BME280;37162;41.724;13.346;2023-07-30T02:56:32;96659.63;;;24.90;64.52
51123;BME280;37162;41.724;13.346;2023-07-30T02:58:58;96656.09;;;24.89;64.57
51123;BME280;37162;41.724;13.346;2023-07-30T03:01:24;96661.53;;;24.89;64.23
51123;BME280;37162;41.724;13.346;2023-07-30T03:03:50;96643.66;;;24.83;64.19
51123;BME280;37162;41.724;13.346;2023-07-30T03:06:15;96659.91;;;24.88;63.98
51123;BME280;37162;41.724;13.346;2023-07-30T03:08:43;96647.47;;;24.82;64.17
51123;BME280;37162;41.724;13.346;2023-07-30T03:11:08;96655.56;;;24.87;64.66
51123;BME280;37162;41.724;13.346;2023-07-30T03:13:34;96667.25;;;24.88;64.12
51123;BME280;37162;41.724;13.346;2023-07-30T03:15:59;96645.31;;;24.79;64.32
51123;BME280;37162;41.724;13.346;2023-07-30T03:18:25;96656.38;;;24.88;64.07
51123;BME280;37162;41.724;13.346;2023-07-30T03:20:50;96641.22;;;24.82;63.91
51123;BME280;37162;41.724;13.346;2023-07-30T03:23:16;96652.34;;;24.85;64.08
51123;BME280;37162;41.724;13.346;2023-07-30T03:25:41;96648.81;;;24.85;64.16
51123;BME280;37162;41.724;13.346;2023-07-30T03:28:06;96618.84;;;24.66;64.32
51123;BME280;37162;41.724;13.346;2023-07-30T03:30:32;96657.19;;;24.88;64.12
51123;BME280;37162;41.724;13.346;2023-07-30T03:32:57;96653.94;;;24.86;64.34
51123;BME280;37162;41.724;13.346;2023-07-30T03:35:23;96664.81;;;24.86;63.97
51123;BME280;37162;41.724;13.346;2023-07-30T03:37:48;96662.66;;;24.83;63.75
51123;BME280;37162;41.724;13.346;2023-07-30T03:40:14;96621.81;;;24.64;64.40
51123;BME280;37162;41.724;13.346;2023-07-30T03:42:39;96670.25;;;24.86;64.31
51123;BME280;37162;41.724;13.346;2023-07-30T03:45:05;96663.78;;;24.82;64.08
51123;BME280;37162;41.724;13.346;2023-07-30T03:47:30;96656.66;;;24.86;64.19
51123;BME280;37162;41.724;13.346;2023-07-30T03:49:56;96667.84;;;24.85;64.09
51123;BME280;37162;41.724;13.346;2023-07-30T03:52:21;96654.00;;;24.81;63.94
51123;BME280;37162;41.724;13.346;2023-07-30T03:54:47;96663.72;;;24.87;63.87
51123;BME280;37162;41.724;13.346;2023-07-30T03:57:12;96650.19;;;24.82;64.06
51123;BME280;37162;41.724;13.346;2023-07-30T03:59:37;96664.81;;;24.86;64.08
51123;BME280;37162;41.724;13.346;2023-07-30T04:02:03;96654.00;;;24.81;64.23
51123;BME280;37162;41.724;13.346;2023-07-30T04:04:29;96667.53;;;24.86;64.43
51123;BME280;37162;41.724;13.346;2023-07-30T04:06:55;96659.13;;;24.83;63.99
51123;BME280;37162;41.724;13.346;2023-07-30T04:09:20;96653.44;;;24.84;64.34
51123;BME280;37162;41.724;13.346;2023-07-30T04:11:46;96664.31;;;24.84;64.27
51123;BME280;37162;41.724;13.346;2023-07-30T04:14:11;96640.16;;;24.78;64.05
51123;BME280;37162;41.724;13.346;2023-07-30T04:16:36;96661.59;;;24.84;64.03
51123;BME280;37162;41.724;13.346;2023-07-30T04:19:02;96662.41;;;24.85;64.15
51123;BME280;37162;41.724;13.346;2023-07-30T04:21:27;96661.59;;;24.84;63.82
51123;BME280;37162;41.724;13.346;2023-07-30T04:23:53;96649.38;;;24.82;63.82
51123;BME280;37162;41.724;13.346;2023-07-30T04:26:18;96663.22;;;24.85;63.89
51123;BME280;37162;41.724;13.346;2023-07-30T04:28:44;96649.63;;;24.85;63.77
51123;BME280;37162;41.724;13.346;2023-07-30T04:31:09;96647.16;;;24.84;63.63
51123;BME280;37162;41.724;13.346;2023-07-30T04:33:34;96646.09;;;24.85;63.79
51123;BME280;37162;41.724;13.346;2023-07-30T04:36:00;96642.31;;;24.81;64.01
51123;BME280;37162;41.724;13.346;2023-07-30T04:38:25;96645.00;;;24.86;63.71
51123;BME280;37162;41.724;13.346;2023-07-30T04:40:51;96628.78;;;24.76;64.04
51123;BME280;37162;41.724;13.346;2023-07-30T04:43:16;96658.03;;;24.84;64.21
51123;BME280;37162;41.724;13.346;2023-07-30T04:45:42;96637.44;;;24.78;64.55
51123;BME280;37162;41.724;13.346;2023-07-30T04:48:08;96649.63;;;24.85;64.36
51123;BME280;37162;41.724;13.346;2023-07-30T04:50:33;96642.31;;;24.81;64.13
51123;BME280;37162;41.724;13.346;2023-07-30T04:52:59;96648.00;;;24.84;64.32
51123;BME280;37162;41.724;13.346;2023-07-30T04:55:24;96646.34;;;24.83;64.14
51123;BME280;37162;41.724;13.346;2023-07-30T04:57:50;96645.56;;;24.83;64.04
51123;BME280;37162;41.724;13.346;2023-07-30T05:00:16;96648.28;;;24.83;63.55
51123;BME280;37162;41.724;13.346;2023-07-30T05:02:42;96649.88;;;24.84;63.41
51123;BME280;37162;41.724;13.346;2023-07-30T05:05:07;96646.34;;;24.83;63.14
51123;BME280;37162;41.724;13.346;2023-07-30T05:07:33;96643.66;;;24.83;63.19
51123;BME280;37162;41.724;13.346;2023-07-30T05:09:58;96651.53;;;24.85;63.06
51123;BME280;37162;41.724;13.346;2023-07-30T05:12:24;96645.56;;;24.83;62.78
51123;BME280;37162;41.724;13.346;2023-07-30T05:14:49;96644.50;;;24.79;62.67
51123;BME280;37162;41.724;13.346;2023-07-30T05:17:15;96643.13;;;24.81;62.18
51123;BME280;37162;41.724;13.346;2023-07-30T05:19:40;96644.22;;;24.80;62.28
51123;BME280;37162;41.724;13.346;2023-07-30T05:22:06;96655.06;;;24.85;62.01
51123;BME280;37162;41.724;13.346;2023-07-30T05:24:33;96645.91;;;24.76;61.67
51123;BME280;37162;41.724;13.346;2023-07-30T05:26:59;96653.44;;;24.84;60.76
51123;BME280;37162;41.724;13.346;2023-07-30T05:29:24;96646.72;;;24.77;60.98
51123;BME280;37162;41.724;13.346;2023-07-30T05:31:49;96658.28;;;24.87;61.66
51123;BME280;37162;41.724;13.346;2023-07-30T05:34:15;96659.09;;;24.88;62.02
51123;BME280;37162;41.724;13.346;2023-07-30T05:36:40;96668.06;;;24.88;62.24
51123;BME280;37162;41.724;13.346;2023-07-30T05:39:05;96653.94;;;24.86;61.89
51123;BME280;37162;41.724;13.346;2023-07-30T05:41:31;96656.09;;;24.89;61.94
51123;BME280;37162;41.724;13.346;2023-07-30T05:43:57;96618.00;;;24.65;61.55
51123;BME280;37162;41.724;13.346;2023-07-30T05:46:22;96660.69;;;24.89;61.44
51123;BME280;37162;41.724;13.346;2023-07-30T05:48:47;96650.22;;;24.77;60.94
51123;BME280;37162;41.724;13.346;2023-07-30T05:51:13;96668.59;;;24.90;60.86
51123;BME280;37162;41.724;13.346;2023-07-30T05:53:38;96659.09;;;24.88;61.81
51123;BME280;37162;41.724;13.346;2023-07-30T05:56:04;96663.66;;;24.92;61.49
51123;BME280;37162;41.724;13.346;2023-07-30T05:58:29;96666.44;;;24.87;60.90
51123;BME280;37162;41.724;13.346;2023-07-30T06:00:55;96670.50;;;24.90;60.95
51123;BME280;37162;41.724;13.346;2023-07-30T06:03:21;96656.66;;;24.86;60.80
51123;BME280;37162;41.724;13.346;2023-07-30T06:05:46;96665.28;;;24.93;62.18
51123;BME280;37162;41.724;13.346;2023-07-30T06:08:12;96648.56;;;24.81;61.35
51123;BME280;37162;41.724;13.346;2023-07-30T06:10:38;96667.72;;;24.95;62.45
51123;BME280;37162;41.724;13.346;2023-07-30T06:13:06;96648.28;;;24.83;61.68
51123;BME280;37162;41.724;13.346;2023-07-30T06:15:32;96638.00;;;24.74;61.98
51123;BME280;37162;41.724;13.346;2023-07-30T06:17:58;96660.94;;;24.92;62.38
51123;BME280;37162;41.724;13.346;2023-07-30T06:20:23;96669.06;;;24.97;62.97
51123;BME280;37162;41.724;13.346;2023-07-30T06:22:49;96652.84;;;24.87;63.27
51123;BME280;37162;41.724;13.346;2023-07-30T06:25:14;96674.22;;;24.99;63.51
51123;BME280;37162;41.724;13.346;2023-07-30T06:27:39;96676.13;;;24.98;63.43
51123;BME280;37162;41.724;13.346;2023-07-30T06:30:05;96668.84;;;24.94;63.42
51123;BME280;37162;41.724;13.346;2023-07-30T06:32:31;96672.56;;;24.98;62.00
51123;BME280;37162;41.724;13.346;2023-07-30T06:34:56;96670.69;;;24.98;62.76
51123;BME280;37162;41.724;13.346;2023-07-30T06:37:22;96659.84;;;24.93;61.78
51123;BME280;37162;41.724;13.346;2023-07-30T06:39:47;96668.25;;;24.97;61.75
51123;BME280;37162;41.724;13.346;2023-07-30T06:42:13;96679.88;;;25.03;63.25
51123;BME280;37162;41.724;13.346;2023-07-30T06:44:38;96667.38;;;25.02;62.51
51123;BME280;37162;41.724;13.346;2023-07-30T06:47:03;96665.22;;;25.04;62.69
51123;BME280;37162;41.724;13.346;2023-07-30T06:49:29;96648.94;;;24.98;64.05
51123;BME280;37162;41.724;13.346;2023-07-30T06:51:54;96659.78;;;25.04;64.12
51123;BME280;37162;41.724;13.346;2023-07-30T06:54:20;96667.09;;;25.08;64.22
51123;BME280;37162;41.724;13.346;2023-07-30T06:56:46;96661.91;;;25.07;63.91
51123;BME280;37162;41.724;13.346;2023-07-30T06:59:11;96658.38;;;25.06;64.25
51123;BME280;37162;41.724;13.346;2023-07-30T07:01:36;96655.13;;;25.09;63.83
51123;BME280;37162;41.724;13.346;2023-07-30T07:04:02;96648.31;;;25.07;64.34
51123;BME280;37162;41.724;13.346;2023-07-30T07:06:27;96649.13;;;25.07;64.63
51123;BME280;37162;41.724;13.346;2023-07-30T07:08:53;96658.34;;;25.11;64.69
51123;BME280;37162;41.724;13.346;2023-07-30T07:11:18;96651.84;;;25.07;64.25
51123;BME280;37162;41.724;13.346;2023-07-30T07:13:44;96651.00;;;25.12;64.61
51123;BME280;37162;41.724;13.346;2023-07-30T07:16:09;96648.28;;;25.12;64.45
51123;BME280;37162;41.724;13.346;2023-07-30T07:18:35;96650.44;;;25.15;64.73
51123;BME280;37162;41.724;13.346;2023-07-30T07:21:00;96645.78;;;25.15;64.77
51123;BME280;37162;41.724;13.346;2023-07-30T07:23:26;96645.78;;;25.15;65.09
51123;BME280;37162;41.724;13.346;2023-07-30T07:25:52;96640.41;;;25.10;64.85
51123;BME280;37162;41.724;13.346;2023-07-30T07:28:17;96636.59;;;25.11;64.92
51123;BME280;37162;41.724;13.346;2023-07-30T07:30:44;96639.59;;;25.10;65.12
51123;BME280;37162;41.724;13.346;2023-07-30T07:33:10;96633.63;;;25.08;65.08
51123;BME280;37162;41.724;13.346;2023-07-30T07:35:39;96642.75;;;25.22;65.67
51123;BME280;37162;41.724;13.346;2023-07-30T07:38:04;96646.78;;;25.24;65.36
51123;BME280;37162;41.724;13.346;2023-07-30T07:40:30;96641.91;;;25.21;65.17
51123;BME280;37162;41.724;13.346;2023-07-30T07:42:55;96644.31;;;25.28;65.08
51123;BME280;37162;41.724;13.346;2023-07-30T07:45:21;96645.63;;;25.31;65.43
51123;BME280;37162;41.724;13.346;2023-07-30T07:47:46;96651.88;;;25.31;65.43
51123;BME280;37162;41.724;13.346;2023-07-30T07:50:12;96646.16;;;25.33;65.30
51123;BME280;37162;41.724;13.346;2023-07-30T07:52:37;96652.41;;;25.33;65.14
51123;BME280;37162;41.724;13.346;2023-07-30T07:55:04;96647.78;;;25.34;65.07
51123;BME280;37162;41.724;13.346;2023-07-30T07:57:29;96649.69;;;25.33;65.22
51123;BME280;37162;41.724;13.346;2023-07-30T07:59:56;96649.63;;;25.38;65.17
51123;BME280;37162;41.724;13.346;2023-07-30T08:02:22;96650.13;;;25.40;65.39
51123;BME280;37162;41.724;13.346;2023-07-30T08:04:48;96643.59;;;25.41;65.61
51123;BME280;37162;41.724;13.346;2023-07-30T08:07:13;96633.31;;;25.38;65.38
51123;BME280;37162;41.724;13.346;2023-07-30T08:09:38;96637.56;;;25.44;65.50
51123;BME280;37162;41.724;13.346;2023-07-30T08:12:04;96625.66;;;25.40;65.31
51123;BME280;37162;41.724;13.346;2023-07-30T08:14:30;96635.38;;;25.46;65.38
51123;BME280;37162;41.724;13.346;2023-07-30T08:16:56;96635.88;;;25.48;65.50
51123;BME280;37162;41.724;13.346;2023-07-30T08:19:21;96641.88;;;25.51;65.35
51123;BME280;37162;41.724;13.346;2023-07-30T08:21:47;96637.22;;;25.51;65.57
51123;BME280;37162;41.724;13.346;2023-07-30T08:24:12;96642.38;;;25.53;65.47
51123;BME280;37162;41.724;13.346;2023-07-30T08:26:38;96640.16;;;25.55;65.44
51123;BME280;37162;41.724;13.346;2023-07-30T08:29:03;96644.53;;;25.56;65.26
51123;BME280;37162;41.724;13.346;2023-07-30T08:31:31;96640.41;;;25.58;65.38
51123;BME280;37162;41.724;13.346;2023-07-30T08:33:56;96640.94;;;25.60;65.35
51123;BME280;37162;41.724;13.346;2023-07-30T08:36:21;96640.63;;;25.62;65.62
51123;BME280;37162;41.724;13.346;2023-07-30T08:38:47;96649.28;;;25.64;65.69
51123;BME280;37162;41.724;13.346;2023-07-30T08:41:12;96635.13;;;25.67;65.61
51123;BME280;37162;41.724;13.346;2023-07-30T08:43:38;96640.25;;;25.68;65.70
51123;BME280;37162;41.724;13.346;2023-07-30T08:46:04;96641.91;;;25.69;65.48
51123;BME280;37162;41.724;13.346;2023-07-30T08:48:29;96649.19;;;25.74;65.75
51123;BME280;37162;41.724;13.346;2023-07-30T08:50:58;96642.06;;;25.78;66.11
51123;BME280;37162;41.724;13.346;2023-07-30T08:53:25;96640.31;;;25.87;65.83
51123;BME280;37162;41.724;13.346;2023-07-30T08:55:53;96638.63;;;25.91;66.07
51123;BME280;37162;41.724;13.346;2023-07-30T08:58:19;96638.03;;;25.94;66.53
51123;BME280;37162;41.724;13.346;2023-07-30T09:00:45;96645.91;;;25.96;66.23
51123;BME280;37162;41.724;13.346;2023-07-30T09:03:12;96646.72;;;25.96;65.76
51123;BME280;37162;41.724;13.346;2023-07-30T09:05:40;96651.50;;;26.05;64.63
51123;BME280;37162;41.724;13.346;2023-07-30T09:08:05;96644.06;;;26.10;64.87
51123;BME280;37162;41.724;13.346;2023-07-30T09:10:31;96643.78;;;26.12;65.03
51123;BME280;37162;41.724;13.346;2023-07-30T09:12:57;96642.69;;;26.13;64.85
51123;BME280;37162;41.724;13.346;2023-07-30T09:15:34;96639.16;;;26.12;65.04
51123;BME280;37162;41.724;13.346;2023-07-30T09:18:03;96635.63;;;26.12;64.84
51123;BME280;37162;41.724;13.346;2023-07-30T09:20:36;96630.19;;;26.12;64.78
51123;BME280;37162;41.724;13.346;2023-07-30T09:23:02;96634.81;;;26.11;64.99
51123;BME280;37162;41.724;13.346;2023-07-30T09:25:27;96639.44;;;26.11;64.91
51123;BME280;37162;41.724;13.346;2023-07-30T09:27:52;96631.34;;;26.06;64.35
51123;BME280;37162;41.724;13.346;2023-07-30T09:30:25;96637.22;;;26.13;64.86
51123;BME280;37162;41.724;13.346;2023-07-30T09:32:55;96631.78;;;26.13;63.99
51123;BME280;37162;41.724;13.346;2023-07-30T09:35:22;96622.59;;;26.09;63.98
51123;BME280;37162;41.724;13.346;2023-07-30T09:37:50;96632.50;;;26.18;64.03
51123;BME280;37162;41.724;13.346;2023-07-30T09:40:16;96620.59;;;26.14;64.01
51123;BME280;37162;41.724;13.346;2023-07-30T09:42:48;96624.56;;;26.22;64.31
51123;BME280;37162;41.724;13.346;2023-07-30T09:45:24;96622.66;;;26.22;64.08
51123;BME280;37162;41.724;13.346;2023-07-30T09:47:51;96625.69;;;26.21;64.24
51123;BME280;37162;41.724;13.346;2023-07-30T09:50:17;96622.97;;;26.21;64.12
51123;BME280;37162;41.724;13.346;2023-07-30T09:52:43;96613.94;;;26.20;64.18
51123;BME280;37162;41.724;13.346;2023-07-30T09:55:09;96601.22;;;26.16;64.30
51123;BME280;37162;41.724;13.346;2023-07-30T09:57:34;96615.59;;;26.21;64.06
51123;BME280;37162;41.724;13.346;2023-07-30T10:00:01;96610.16;;;26.21;64.36
51123;BME280;37162;41.724;13.346;2023-07-30T10:02:28;96605.28;;;26.18;64.25
51123;BME280;37162;41.724;13.346;2023-07-30T10:04:57;96604.38;;;26.23;64.05
51123;BME280;37162;41.724;13.346;2023-07-30T10:07:25;96610.34;;;26.25;63.85
51123;BME280;37162;41.724;13.346;2023-07-30T10:09:55;96604.09;;;26.24;63.49
51123;BME280;37162;41.724;13.346;2023-07-30T10:12:27;96599.97;;;26.27;63.79
51123;BME280;37162;41.724;13.346;2023-07-30T10:14:54;96597.03;;;26.23;63.57
51123;BME280;37162;41.724;13.346;2023-07-30T10:17:19;96600.47;;;26.29;63.78
51123;BME280;37162;41.724;13.346;2023-07-30T10:19:49;96576.66;;;26.21;63.35
51123;BME280;37162;41.724;13.346;2023-07-30T10:25:03;96599.09;;;26.32;63.44
51123;BME280;37162;41.724;13.346;2023-07-30T10:27:39;96597.16;;;26.32;63.40
51123;BME280;37162;41.724;13.346;2023-07-30T10:30:09;96594.44;;;26.32;63.11
51123;BME280;37162;41.724;13.346;2023-07-30T10:32:39;96579.28;;;26.26;62.93
51123;BME280;37162;41.724;13.346;2023-07-30T10:35:05;96592.22;;;26.34;63.20
51123;BME280;37162;41.724;13.346;2023-07-30T10:37:31;96577.78;;;26.34;63.13
51123;BME280;37162;41.724;13.346;2023-07-30T10:39:56;96580.59;;;26.29;63.09
51123;BME280;37162;41.724;13.346;2023-07-30T10:42:21;96584.75;;;26.26;62.84
51123;BME280;37162;41.724;13.346;2023-07-30T10:44:47;96585.81;;;26.25;63.26
51123;BME280;37162;41.724;13.346;2023-07-30T10:47:14;96592.91;;;26.26;63.01
51123;BME280;37162;41.724;13.346;2023-07-30T10:49:40;96593.19;;;26.24;63.05
51123;BME280;37162;41.724;13.346;2023-07-30T10:52:11;96598.13;;;26.22;63.34
51123;BME280;37162;41.724;13.346;2023-07-30T10:54:37;96593.28;;;26.19;63.25
51123;BME280;37162;41.724;13.346;2023-07-30T10:57:03;96560.72;;;25.95;63.10
51123;BME280;37162;41.724;13.346;2023-07-30T10:59:39;96600.13;;;26.17;63.44
51123;BME280;37162;41.724;13.346;2023-07-30T11:02:05;96597.69;;;26.15;63.14
51123;BME280;37162;41.724;13.346;2023-07-30T11:04:34;96598.81;;;26.14;63.24
51123;BME280;37162;41.724;13.346;2023-07-30T11:06:59;96598.31;;;26.12;63.24
51123;BME280;37162;41.724;13.346;2023-07-30T11:09:27;96594.25;;;26.10;63.31
51123;BME280;37162;41.724;13.346;2023-07-30T11:11:54;96589.31;;;26.12;63.31
51123;BME280;37162;41.724;13.346;2023-07-30T11:14:22;96592.06;;;26.12;63.42
51123;BME280;37162;41.724;13.346;2023-07-30T11:16:53;96574.69;;;26.08;63.33
51123;BME280;37162;41.724;13.346;2023-07-30T11:19:19;96580.13;;;26.08;63.10
51123;BME280;37162;41.724;13.346;2023-07-30T11:21:49;96585.19;;;26.14;63.35
51123;BME280;37162;41.724;13.346;2023-07-30T11:24:15;96582.16;;;26.16;63.33
51123;BME280;37162;41.724;13.346;2023-07-30T11:26:42;96575.72;;;26.12;63.31
51123;BME280;37162;41.724;13.346;2023-07-30T11:29:34;96587.03;;;26.19;63.10
51123;BME280;37162;41.724;13.346;2023-07-30T11:31:59;96584.06;;;26.15;63.08
51123;BME280;37162;41.724;13.346;2023-07-30T11:34:28;96575.63;;;26.17;62.92
51123;BME280;37162;41.724;13.346;2023-07-30T11:36:55;96577.53;;;26.16;63.11
51123;BME280;37162;41.724;13.346;2023-07-30T11:39:21;96585.41;;;26.18;62.86
51123;BME280;37162;41.724;13.346;2023-07-30T11:41:48;96577.66;;;26.25;59.55
51123;BME280;37162;41.724;13.346;2023-07-30T11:44:30;96569.34;;;26.35;62.35
51123;BME280;37162;41.724;13.346;2023-07-30T11:46:56;96576.09;;;26.38;62.01
51123;BME280;37162;41.724;13.346;2023-07-30T11:49:21;96572.06;;;26.35;62.21
51123;BME280;37162;41.724;13.346;2023-07-30T11:51:47;96574.56;;;26.32;62.29
51123;BME280;37162;41.724;13.346;2023-07-30T11:54:22;96557.19;;;26.28;62.26
51123;BME280;37162;41.724;13.346;2023-07-30T11:56:54;96559.44;;;26.25;62.47
51123;BME280;37162;41.724;13.346;2023-07-30T11:59:21;96552.72;;;26.18;62.33
51123;BME280;37162;41.724;13.346;2023-07-30T12:01:49;96559.47;;;26.20;62.65
51123;BME280;37162;41.724;13.346;2023-07-30T12:04:15;96550.31;;;26.16;62.66
51123;BME280;37162;41.724;13.346;2023-07-30T12:06:41;96557.38;;;26.17;62.69
51123;BME280;37162;41.724;13.346;2023-07-30T12:09:23;96552.81;;;26.13;62.60
51123;BME280;37162;41.724;13.346;2023-07-30T12:11:53;96556.56;;;26.17;62.68
51123;BME280;37162;41.724;13.346;2023-07-30T12:14:21;96555.75;;;26.16;62.45
51123;BME280;37162;41.724;13.346;2023-07-30T12:16:47;96541.41;;;26.11;62.94
51123;BME280;37162;41.724;13.346;2023-07-30T12:19:12;96548.41;;;26.17;62.68
51123;BME280;37162;41.724;13.346;2023-07-30T12:21:37;96545.06;;;26.20;62.77
51123;BME280;37162;41.724;13.346;2023-07-30T12:24:03;96548.31;;;26.22;62.77
51123;BME280;37162;41.724;13.346;2023-07-30T12:26:29;96526.88;;;26.15;62.40
51123;BME280;37162;41.724;13.346;2023-07-30T12:28:54;96536.81;;;26.25;62.48
51123;BME280;37162;41.724;13.346;2023-07-30T12:31:20;96534.06;;;26.25;62.39
51123;BME280;37162;41.724;13.346;2023-07-30T12:33:45;96529.25;;;26.22;62.33
51123;BME280;37162;41.724;13.346;2023-07-30T12:36:10;96524.50;;;26.28;62.43
51123;BME280;37162;41.724;13.346;2023-07-30T12:38:36;96524.59;;;26.22;62.20
51123;BME280;37162;41.724;13.346;2023-07-30T12:41:01;96528.84;;;26.29;62.34
51123;BME280;37162;41.724;13.346;2023-07-30T12:43:27;96520.19;;;26.27;62.31
51123;BME280;37162;41.724;13.346;2023-07-30T12:45:52;96522.59;;;26.28;62.28
51123;BME280;37162;41.724;13.346;2023-07-30T12:48:18;96522.59;;;26.28;62.25